sensor_id;sensor_type;location;lat;lon;timestamp;pressure;altitude;pressure_sealevel;temperature;humidity
22000;BME280;11164;48.818;2.322;2023-01-29T00:01:49;102097.94;;;3.25;42.23
22000;BME280;11164;48.818;2.322;2023-01-29T00:04:14;102093.22;;;3.29;42.13
22000;BME280;11164;48.818;2.322;2023-01-29T00:06:40;102093.09;;;3.30;41.77
22000;BME280;11164;48.818;2.322;2023-01-29T00:09:05;102084.25;;;3.30;41.86
22000;BME280;11164;48.818;2.322;2023-01-29T00:11:31;102084.59;;;3.25;41.62
22000;BME280;11164;48.818;2.322;2023-01-29T00:13:56;102082.41;;;3.19;42.17
22000;BME280;11164;48.818;2.322;2023-01-29T00:16:22;102087.00;;;3.17;42.13
22000;BME280;11164;48.818;2.322;2023-01-29T00:18:48;102085.81;;;3.21;42.10
22000;BME280;11164;48.818;2.322;2023-01-29T00:21:15;102092.69;;;3.24;41.90
22000;BME280;11164;48.818;2.322;2023-01-29T00:23:41;102087.00;;;3.17;41.81
22000;BME280;11164;48.818;2.322;2023-01-29T00:26:08;102081.09;;;3.25;41.27
22000;BME280;11164;48.818;2.322;2023-01-29T00:28:34;102084.84;;;3.22;42.21
22000;BME280;11164;48.818;2.322;2023-01-29T00:31:06;102072.66;;;3.31;41.42
22000;BME280;11164;48.818;2.322;2023-01-29T00:33:31;102074.19;;;3.22;42.09
22000;BME280;11164;48.818;2.322;2023-01-29T00:35:57;102072.69;;;3.18;41.89
22000;BME280;11164;48.818;2.322;2023-01-29T00:38:22;102059.72;;;3.13;41.78
22000;BME280;11164;48.818;2.322;2023-01-29T00:40:48;102070.88;;;3.19;41.98
22000;BME280;11164;48.818;2.322;2023-01-29T00:43:32;102079.22;;;3.14;41.75
22000;BME280;11164;48.818;2.322;2023-01-29T00:46:15;102072.06;;;3.14;42.00
22000;BME280;11164;48.818;2.322;2023-01-29T00:48:41;102066.97;;;3.11;42.25
22000;BME280;11164;48.818;2.322;2023-01-29T00:51:06;102062.50;;;3.12;42.16
22000;BME280;11164;48.818;2.322;2023-01-29T00:53:31;102069.28;;;3.16;41.80
22000;BME280;11164;48.818;2.322;2023-01-29T00:55:57;102066.75;;;3.14;41.93
22000;BME280;11164;48.818;2.322;2023-01-29T00:58:22;102078.72;;;3.09;41.89
22000;BME280;11164;48.818;2.322;2023-01-29T01:00:53;102065.72;;;3.04;42.20
22000;BME280;11164;48.818;2.322;2023-01-29T01:03:18;102065.56;;;2.94;42.14
22000;BME280;11164;48.818;2.322;2023-01-29T01:05:44;102060.44;;;2.91;42.58
22000;BME280;11164;48.818;2.322;2023-01-29T01:08:09;102056.47;;;2.97;42.75
22000;BME280;11164;48.818;2.322;2023-01-29T01:10:57;102054.94;;;3.06;42.98
22000;BME280;11164;48.818;2.322;2023-01-29T01:13:23;102062.50;;;3.12;42.47
22000;BME280;11164;48.818;2.322;2023-01-29T01:15:48;102061.19;;;3.18;42.63
22000;BME280;11164;48.818;2.322;2023-01-29T01:18:14;102055.06;;;3.04;42.86
22000;BME280;11164;48.818;2.322;2023-01-29T01:20:40;102057.91;;;2.90;42.41
22000;BME280;11164;48.818;2.322;2023-01-29T01:23:05;102060.97;;;2.96;43.04
22000;BME280;11164;48.818;2.322;2023-01-29T01:25:31;102064.16;;;3.02;42.08
22000;BME280;11164;48.818;2.322;2023-01-29T01:27:57;102062.22;;;3.04;42.65
22000;BME280;11164;48.818;2.322;2023-01-29T01:30:23;102061.50;;;2.89;42.57
22000;BME280;11164;48.818;2.322;2023-01-29T01:32:49;102063.22;;;2.90;42.96
22000;BME280;11164;48.818;2.322;2023-01-29T01:35:15;102062.03;;;2.94;42.72
22000;BME280;11164;48.818;2.322;2023-01-29T01:37:40;102068.50;;;3.03;42.94
22000;BME280;11164;48.818;2.322;2023-01-29T01:40:11;102068.22;;;2.94;42.62
22000;BME280;11164;48.818;2.322;2023-01-29T01:42:42;102063.88;;;3.05;42.97
22000;BME280;11164;48.818;2.322;2023-01-29T01:45:28;102058.69;;;3.03;42.65
22000;BME280;11164;48.818;2.322;2023-01-29T01:48:39;102061.41;;;2.90;43.14
22000;BME280;11164;48.818;2.322;2023-01-29T01:50:48;102068.03;;;2.85;43.21
22000;BME280;11164;48.818;2.322;2023-01-29T01:53:22;102064.84;;;2.79;42.83
22000;BME280;11164;48.818;2.322;2023-01-29T01:56:01;102068.81;;;2.74;43.60
22000;BME280;11164;48.818;2.322;2023-01-29T01:58:38;102068.88;;;2.85;42.97
22000;BME280;11164;48.818;2.322;2023-01-29T02:01:07;102068.56;;;2.90;42.61
22000;BME280;11164;48.818;2.322;2023-01-29T02:03:56;102079.63;;;2.96;42.51
22000;BME280;11164;48.818;2.322;2023-01-29T02:06:42;102068.22;;;2.94;43.40
22000;BME280;11164;48.818;2.322;2023-01-29T02:09:31;102072.78;;;2.92;42.90
22000;BME280;11164;48.818;2.322;2023-01-29T02:12:04;102076.47;;;3.03;42.38
22000;BME280;11164;48.818;2.322;2023-01-29T02:14:30;102083.31;;;3.07;42.61
22000;BME280;11164;48.818;2.322;2023-01-29T02:17:01;102085.34;;;3.03;42.48
22000;BME280;11164;48.818;2.322;2023-01-29T02:20:02;102094.34;;;2.89;43.42
22000;BME280;11164;48.818;2.322;2023-01-29T02:22:55;102077.97;;;2.83;42.70
22000;BME280;11164;48.818;2.322;2023-01-29T02:30:55;102074.66;;;2.79;42.93
22000;BME280;11164;48.818;2.322;2023-01-29T02:33:40;102067.41;;;2.81;43.36
22000;BME280;11164;48.818;2.322;2023-01-29T02:39:08;102075.44;;;2.92;43.31
22000;BME280;11164;48.818;2.322;2023-01-29T02:47:03;102070.50;;;2.75;43.18
22000;BME280;11164;48.818;2.322;2023-01-29T02:49:33;102071.13;;;2.78;43.09
22000;BME280;11164;48.818;2.322;2023-01-29T02:54:46;102061.06;;;2.95;42.25
22000;BME280;11164;48.818;2.322;2023-01-29T02:57:19;102058.72;;;2.90;43.19
22000;BME280;11164;48.818;2.322;2023-01-29T02:59:56;102058.22;;;2.85;42.29
22000;BME280;11164;48.818;2.322;2023-01-29T03:02:41;102054.78;;;2.72;43.23
22000;BME280;11164;48.818;2.322;2023-01-29T03:05:12;102043.97;;;2.73;42.70
22000;BME280;11164;48.818;2.322;2023-01-29T03:07:43;102033.22;;;2.75;43.19
22000;BME280;11164;48.818;2.322;2023-01-29T03:10:23;102035.88;;;2.75;42.84
22000;BME280;11164;48.818;2.322;2023-01-29T03:12:54;102037.03;;;2.84;42.83
22000;BME280;11164;48.818;2.322;2023-01-29T03:15:34;102032.84;;;2.55;44.07
22000;BME280;11164;48.818;2.322;2023-01-29T03:20:35;102037.66;;;2.50;42.96
22000;BME280;11164;48.818;2.322;2023-01-29T03:23:07;102047.56;;;2.48;43.95
22000;BME280;11164;48.818;2.322;2023-01-29T03:25:35;102048.66;;;2.33;43.48
22000;BME280;11164;48.818;2.322;2023-01-29T03:28:21;102044.59;;;2.40;43.80
22000;BME280;11164;48.818;2.322;2023-01-29T03:31:09;102044.00;;;2.24;43.88
22000;BME280;11164;48.818;2.322;2023-01-29T03:34:00;102036.00;;;2.24;43.94
22000;BME280;11164;48.818;2.322;2023-01-29T03:36:48;102042.06;;;2.26;44.72
22000;BME280;11164;48.818;2.322;2023-01-29T03:39:20;102039.63;;;2.22;44.28
22000;BME280;11164;48.818;2.322;2023-01-29T03:56:00;102048.75;;;1.93;44.74
22000;BME280;11164;48.818;2.322;2023-01-29T03:58:51;102042.69;;;1.91;44.71
22000;BME280;11164;48.818;2.322;2023-01-29T04:01:16;102043.47;;;2.06;44.00
22000;BME280;11164;48.818;2.322;2023-01-29T04:03:49;102038.25;;;2.17;44.31
22000;BME280;11164;48.818;2.322;2023-01-29T04:06:23;102038.31;;;2.28;44.17
22000;BME280;11164;48.818;2.322;2023-01-29T04:09:04;102032.28;;;2.26;44.53
22000;BME280;11164;48.818;2.322;2023-01-29T04:11:32;102035.25;;;2.34;44.13
22000;BME280;11164;48.818;2.322;2023-01-29T04:14:00;102040.72;;;2.20;44.13
22000;BME280;11164;48.818;2.322;2023-01-29T04:16:30;102042.50;;;1.94;44.66
22000;BME280;11164;48.818;2.322;2023-01-29T04:18:58;102044.69;;;1.74;45.25
22000;BME280;11164;48.818;2.322;2023-01-29T04:21:24;102044.28;;;1.80;45.26
22000;BME280;11164;48.818;2.322;2023-01-29T04:23:50;102037.69;;;1.86;44.69
22000;BME280;11164;48.818;2.322;2023-01-29T04:29:23;102036.31;;;1.93;45.04
22000;BME280;11164;48.818;2.322;2023-01-29T04:32:32;102042.16;;;1.85;44.99
22000;BME280;11164;48.818;2.322;2023-01-29T04:38:11;102047.16;;;1.77;45.94
22000;BME280;11164;48.818;2.322;2023-01-29T04:40:50;102038.19;;;1.65;45.54
22000;BME280;11164;48.818;2.322;2023-01-29T04:43:43;102046.28;;;1.64;46.52
22000;BME280;11164;48.818;2.322;2023-01-29T04:46:26;102041.50;;;1.69;45.35
22000;BME280;11164;48.818;2.322;2023-01-29T04:49:00;102048.88;;;1.78;44.59
22000;BME280;11164;48.818;2.322;2023-01-29T04:56:54;102052.16;;;1.82;44.90
22000;BME280;11164;48.818;2.322;2023-01-29T04:59:35;102058.53;;;1.79;44.25
22000;BME280;11164;48.818;2.322;2023-01-29T05:02:03;102061.84;;;1.70;44.74
22000;BME280;11164;48.818;2.322;2023-01-29T05:04:32;102062.47;;;1.61;45.55
22000;BME280;11164;48.818;2.322;2023-01-29T05:07:03;102051.59;;;1.51;45.19
22000;BME280;11164;48.818;2.322;2023-01-29T05:09:30;102051.38;;;1.54;45.47
22000;BME280;11164;48.818;2.322;2023-01-29T05:11:57;102058.28;;;1.57;45.31
22000;BME280;11164;48.818;2.322;2023-01-29T05:14:23;102053.22;;;1.66;44.85
22000;BME280;11164;48.818;2.322;2023-01-29T05:16:52;102053.75;;;1.72;44.79
22000;BME280;11164;48.818;2.322;2023-01-29T05:19:20;102050.88;;;1.75;44.37
22000;BME280;11164;48.818;2.322;2023-01-29T05:21:48;102046.94;;;1.80;44.79
22000;BME280;11164;48.818;2.322;2023-01-29T05:24:22;102049.41;;;1.83;44.91
22000;BME280;11164;48.818;2.322;2023-01-29T05:26:50;102038.22;;;1.91;44.72
22000;BME280;11164;48.818;2.322;2023-01-29T05:29:34;102035.66;;;1.90;44.79
22000;BME280;11164;48.818;2.322;2023-01-29T05:32:00;102028.53;;;1.90;44.92
22000;BME280;11164;48.818;2.322;2023-01-29T05:34:25;102026.94;;;1.88;45.04
22000;BME280;11164;48.818;2.322;2023-01-29T05:36:51;102034.63;;;1.92;44.75
22000;BME280;11164;48.818;2.322;2023-01-29T05:39:16;102033.53;;;1.95;45.18
22000;BME280;11164;48.818;2.322;2023-01-29T05:41:42;102042.06;;;1.87;45.13
22000;BME280;11164;48.818;2.322;2023-01-29T05:44:11;102036.97;;;1.97;45.02
22000;BME280;11164;48.818;2.322;2023-01-29T05:46:36;102050.41;;;2.08;44.97
22000;BME280;11164;48.818;2.322;2023-01-29T05:49:02;102052.94;;;2.10;44.72
22000;BME280;11164;48.818;2.322;2023-01-29T05:51:28;102046.44;;;2.14;44.88
22000;BME280;11164;48.818;2.322;2023-01-29T05:53:54;102049.75;;;2.17;44.67
22000;BME280;11164;48.818;2.322;2023-01-29T05:56:19;102048.25;;;2.00;44.75
22000;BME280;11164;48.818;2.322;2023-01-29T05:58:44;102051.25;;;1.96;44.96
22000;BME280;11164;48.818;2.322;2023-01-29T06:01:19;102045.72;;;1.99;45.59
22000;BME280;11164;48.818;2.322;2023-01-29T06:03:45;102043.44;;;1.93;45.12
22000;BME280;11164;48.818;2.322;2023-01-29T06:06:11;102047.69;;;1.82;45.45
22000;BME280;11164;48.818;2.322;2023-01-29T06:08:37;102047.28;;;1.89;45.20
22000;BME280;11164;48.818;2.322;2023-01-29T06:11:02;102041.44;;;1.83;45.21
22000;BME280;11164;48.818;2.322;2023-01-29T06:13:28;102045.03;;;1.82;45.83
22000;BME280;11164;48.818;2.322;2023-01-29T06:15:53;102051.53;;;1.78;45.42
22000;BME280;11164;48.818;2.322;2023-01-29T06:18:18;102058.72;;;1.76;45.49
22000;BME280;11164;48.818;2.322;2023-01-29T06:20:44;102058.34;;;1.82;45.42
22000;BME280;11164;48.818;2.322;2023-01-29T06:23:09;102060.44;;;1.77;45.79
22000;BME280;11164;48.818;2.322;2023-01-29T06:25:35;102064.19;;;1.88;45.40
22000;BME280;11164;48.818;2.322;2023-01-29T06:28:00;102066.06;;;1.73;45.69
22000;BME280;11164;48.818;2.322;2023-01-29T06:30:25;102060.41;;;1.52;45.94
22000;BME280;11164;48.818;2.322;2023-01-29T06:32:55;102067.13;;;1.57;45.54
22000;BME280;11164;48.818;2.322;2023-01-29T06:35:20;102070.75;;;1.56;45.92
22000;BME280;11164;48.818;2.322;2023-01-29T06:37:46;102061.28;;;1.65;45.32
22000;BME280;11164;48.818;2.322;2023-01-29T06:40:11;102067.16;;;1.83;45.40
22000;BME280;11164;48.818;2.322;2023-01-29T06:42:37;102075.72;;;2.01;45.19
22000;BME280;11164;48.818;2.322;2023-01-29T06:45:02;102074.13;;;1.98;44.87
22000;BME280;11164;48.818;2.322;2023-01-29T06:47:28;102075.56;;;1.90;45.43
22000;BME280;11164;48.818;2.322;2023-01-29T06:49:53;102071.53;;;1.84;45.33
22000;BME280;11164;48.818;2.322;2023-01-29T06:52:19;102080.31;;;1.59;45.78
22000;BME280;11164;48.818;2.322;2023-01-29T06:54:44;102078.28;;;1.50;45.62
22000;BME280;11164;48.818;2.322;2023-01-29T06:57:10;102074.22;;;1.44;46.27
22000;BME280;11164;48.818;2.322;2023-01-29T06:59:35;102072.94;;;1.50;46.18
22000;BME280;11164;48.818;2.322;2023-01-29T07:02:02;102064.69;;;1.54;45.77
22000;BME280;11164;48.818;2.322;2023-01-29T07:04:28;102082.91;;;1.73;45.51
22000;BME280;11164;48.818;2.322;2023-01-29T07:06:53;102081.63;;;1.79;45.46
22000;BME280;11164;48.818;2.322;2023-01-29T07:09:18;102073.84;;;1.76;45.34
22000;BME280;11164;48.818;2.322;2023-01-29T07:11:44;102074.94;;;1.86;45.70
22000;BME280;11164;48.818;2.322;2023-01-29T07:14:09;102080.56;;;1.81;45.16
22000;BME280;11164;48.818;2.322;2023-01-29T07:16:34;102084.16;;;1.68;45.79
22000;BME280;11164;48.818;2.322;2023-01-29T07:19:00;102082.56;;;1.65;45.77
22000;BME280;11164;48.818;2.322;2023-01-29T07:21:25;102079.34;;;1.60;45.77
22000;BME280;11164;48.818;2.322;2023-01-29T07:23:50;102072.78;;;1.65;46.17
22000;BME280;11164;48.818;2.322;2023-01-29T07:26:16;102078.31;;;1.75;45.54
22000;BME280;11164;48.818;2.322;2023-01-29T07:28:41;102080.34;;;1.84;45.56
22000;BME280;11164;48.818;2.322;2023-01-29T07:31:10;102079.75;;;1.94;45.38
22000;BME280;11164;48.818;2.322;2023-01-29T07:33:35;102076.78;;;1.98;45.45
22000;BME280;11164;48.818;2.322;2023-01-29T07:36:01;102073.97;;;1.87;45.47
22000;BME280;11164;48.818;2.322;2023-01-29T07:38:26;102082.25;;;1.82;45.95
22000;BME280;11164;48.818;2.322;2023-01-29T07:40:52;102083.44;;;1.78;46.07
22000;BME280;11164;48.818;2.322;2023-01-29T07:43:17;102076.06;;;1.69;45.54
22000;BME280;11164;48.818;2.322;2023-01-29T07:45:43;102082.16;;;1.71;45.53
22000;BME280;11164;48.818;2.322;2023-01-29T07:48:11;102078.63;;;1.58;46.47
22000;BME280;11164;48.818;2.322;2023-01-29T07:50:38;102076.50;;;1.63;45.78
22000;BME280;11164;48.818;2.322;2023-01-29T07:53:03;102085.56;;;1.73;45.96
22000;BME280;11164;48.818;2.322;2023-01-29T07:55:29;102085.06;;;1.94;45.56
22000;BME280;11164;48.818;2.322;2023-01-29T07:58:00;102079.53;;;1.97;45.78
22000;BME280;11164;48.818;2.322;2023-01-29T08:00:26;102088.59;;;2.07;45.13
22000;BME280;11164;48.818;2.322;2023-01-29T08:02:52;102088.81;;;2.17;45.15
22000;BME280;11164;48.818;2.322;2023-01-29T08:05:18;102083.59;;;2.15;45.70
22000;BME280;11164;48.818;2.322;2023-01-29T08:07:43;102077.31;;;2.29;45.63
22000;BME280;11164;48.818;2.322;2023-01-29T08:10:09;102081.34;;;2.35;45.41
22000;BME280;11164;48.818;2.322;2023-01-29T08:12:35;102083.47;;;2.43;45.40
22000;BME280;11164;48.818;2.322;2023-01-29T08:15:00;102085.63;;;2.37;45.90
22000;BME280;11164;48.818;2.322;2023-01-29T08:17:25;102087.94;;;2.42;46.18
22000;BME280;11164;48.818;2.322;2023-01-29T08:19:51;102084.38;;;2.54;46.03
22000;BME280;11164;48.818;2.322;2023-01-29T08:22:16;102079.06;;;2.54;45.59
22000;BME280;11164;48.818;2.322;2023-01-29T08:24:42;102087.47;;;2.61;45.15
22000;BME280;11164;48.818;2.322;2023-01-29T08:27:07;102075.41;;;2.68;45.37
22000;BME280;11164;48.818;2.322;2023-01-29T08:29:33;102078.22;;;2.67;45.76
22000;BME280;11164;48.818;2.322;2023-01-29T08:31:58;102074.94;;;2.63;45.85
22000;BME280;11164;48.818;2.322;2023-01-29T08:34:25;102080.41;;;2.86;45.49
22000;BME280;11164;48.818;2.322;2023-01-29T08:36:50;102087.56;;;2.72;45.72
22000;BME280;11164;48.818;2.322;2023-01-29T08:39:16;102083.97;;;2.60;46.12
22000;BME280;11164;48.818;2.322;2023-01-29T08:41:42;102074.41;;;2.95;45.78
22000;BME280;11164;48.818;2.322;2023-01-29T08:44:07;102077.59;;;3.24;45.51
22000;BME280;11164;48.818;2.322;2023-01-29T08:46:33;102074.03;;;3.48;45.34
22000;BME280;11164;48.818;2.322;2023-01-29T08:48:58;102084.34;;;3.52;44.60
22000;BME280;11164;48.818;2.322;2023-01-29T08:51:24;102092.81;;;3.46;45.04
22000;BME280;11164;48.818;2.322;2023-01-29T08:53:50;102085.09;;;3.54;45.21
22000;BME280;11164;48.818;2.322;2023-01-29T08:56:15;102093.66;;;3.71;44.90
22000;BME280;11164;48.818;2.322;2023-01-29T08:58:41;102093.81;;;3.57;45.23
22000;BME280;11164;48.818;2.322;2023-01-29T09:01:12;102102.00;;;3.42;45.87
22000;BME280;11164;48.818;2.322;2023-01-29T09:03:37;102122.66;;;3.51;45.26
22000;BME280;11164;48.818;2.322;2023-01-29T09:06:09;102124.16;;;3.67;45.21
22000;BME280;11164;48.818;2.322;2023-01-29T09:08:35;102125.28;;;3.76;44.91
22000;BME280;11164;48.818;2.322;2023-01-29T09:11:00;102122.66;;;3.51;45.57
22000;BME280;11164;48.818;2.322;2023-01-29T09:13:26;102123.63;;;3.26;46.17
22000;BME280;11164;48.818;2.322;2023-01-29T09:15:51;102127.09;;;3.15;45.95
22000;BME280;11164;48.818;2.322;2023-01-29T09:18:16;102121.28;;;3.22;45.91
22000;BME280;11164;48.818;2.322;2023-01-29T09:20:42;102109.84;;;3.32;46.44
22000;BME280;11164;48.818;2.322;2023-01-29T09:23:08;102122.13;;;3.46;45.56
22000;BME280;11164;48.818;2.322;2023-01-29T09:25:35;102123.91;;;3.59;45.01
22000;BME280;11164;48.818;2.322;2023-01-29T09:28:01;102127.31;;;3.37;45.88
22000;BME280;11164;48.818;2.322;2023-01-29T09:30:26;102121.91;;;3.49;45.61
22000;BME280;11164;48.818;2.322;2023-01-29T09:32:51;102122.63;;;3.76;45.07
22000;BME280;11164;48.818;2.322;2023-01-29T09:35:17;102119.09;;;3.75;45.58
22000;BME280;11164;48.818;2.322;2023-01-29T09:37:46;102114.28;;;3.80;45.05
22000;BME280;11164;48.818;2.322;2023-01-29T09:43:16;102107.84;;;3.83;44.80
22000;BME280;11164;48.818;2.322;2023-01-29T09:45:51;102105.44;;;3.80;44.65
22000;BME280;11164;48.818;2.322;2023-01-29T09:48:19;102105.19;;;3.83;45.44
22000;BME280;11164;48.818;2.322;2023-01-29T09:50:49;102106.56;;;4.00;44.69
22000;BME280;11164;48.818;2.322;2023-01-29T09:58:46;102116.00;;;4.51;44.22
22000;BME280;11164;48.818;2.322;2023-01-29T10:06:36;102119.50;;;4.62;44.57
22000;BME280;11164;48.818;2.322;2023-01-29T10:17:53;102104.31;;;4.74;44.29
22000;BME280;11164;48.818;2.322;2023-01-29T10:23:23;102115.50;;;4.57;44.37
22000;BME280;11164;48.818;2.322;2023-01-29T10:25:52;102113.66;;;4.91;44.72
22000;BME280;11164;48.818;2.322;2023-01-29T10:28:19;102107.00;;;4.74;44.57
22000;BME280;11164;48.818;2.322;2023-01-29T10:30:48;102104.81;;;4.91;44.62
22000;BME280;11164;48.818;2.322;2023-01-29T10:33:33;102099.69;;;4.88;44.71
22000;BME280;11164;48.818;2.322;2023-01-29T10:36:06;102091.88;;;5.07;44.42
22000;BME280;11164;48.818;2.322;2023-01-29T10:48:56;102067.38;;;5.55;44.20
22000;BME280;11164;48.818;2.322;2023-01-29T10:51:43;102059.22;;;5.57;43.43
22000;BME280;11164;48.818;2.322;2023-01-29T10:54:31;102060.78;;;5.59;44.58
22000;BME280;11164;48.818;2.322;2023-01-29T11:02:25;102059.59;;;5.73;44.17
22000;BME280;11164;48.818;2.322;2023-01-29T11:04:50;102055.25;;;5.93;43.84
22000;BME280;11164;48.818;2.322;2023-01-29T11:07:17;102056.41;;;6.01;43.74
22000;BME280;11164;48.818;2.322;2023-01-29T11:09:52;102058.97;;;5.81;44.19
22000;BME280;11164;48.818;2.322;2023-01-29T11:12:28;102050.78;;;6.04;43.76
22000;BME280;11164;48.818;2.322;2023-01-29T11:15:02;102042.94;;;6.33;43.18
22000;BME280;11164;48.818;2.322;2023-01-29T11:17:29;102051.03;;;6.62;43.05
22000;BME280;11164;48.818;2.322;2023-01-29T11:19:55;102040.88;;;6.56;43.34
22000;BME280;11164;48.818;2.322;2023-01-29T11:22:29;102038.06;;;6.67;42.00
22000;BME280;11164;48.818;2.322;2023-01-29T11:28:00;102038.16;;;7.06;42.62
22000;BME280;11164;48.818;2.322;2023-01-29T11:30:32;102033.47;;;7.08;43.25
22000;BME280;11164;48.818;2.322;2023-01-29T11:33:08;102025.28;;;7.29;42.92
22000;BME280;11164;48.818;2.322;2023-01-29T11:35:35;102029.66;;;7.40;43.19
22000;BME280;11164;48.818;2.322;2023-01-29T11:38:28;102026.00;;;7.41;41.05
22000;BME280;11164;48.818;2.322;2023-01-29T11:41:16;102016.25;;;7.21;38.92
22000;BME280;11164;48.818;2.322;2023-01-29T11:43:46;102009.47;;;7.07;43.07
22000;BME280;11164;48.818;2.322;2023-01-29T11:46:13;102014.72;;;7.47;42.73
22000;BME280;11164;48.818;2.322;2023-01-29T11:48:45;102007.78;;;7.35;41.73
22000;BME280;11164;48.818;2.322;2023-01-29T11:51:21;102006.66;;;7.38;42.34
22000;BME280;11164;48.818;2.322;2023-01-29T11:54:12;102015.72;;;7.27;42.11
22000;BME280;11164;48.818;2.322;2023-01-29T11:56:43;102004.38;;;7.04;43.36
22000;BME280;11164;48.818;2.322;2023-01-29T11:59:39;102000.44;;;6.79;40.11
22000;BME280;11164;48.818;2.322;2023-01-29T12:05:03;102003.78;;;6.61;43.37
22000;BME280;11164;48.818;2.322;2023-01-29T12:07:29;102010.13;;;6.50;43.42
22000;BME280;11164;48.818;2.322;2023-01-29T12:09:57;102005.88;;;6.17;43.67
22000;BME280;11164;48.818;2.322;2023-01-29T12:12:37;102006.88;;;6.26;43.10
22000;BME280;11164;48.818;2.322;2023-01-29T12:17:38;102000.63;;;6.46;42.70
22000;BME280;11164;48.818;2.322;2023-01-29T12:20:11;102001.00;;;5.91;43.48
22000;BME280;11164;48.818;2.322;2023-01-29T12:22:41;102002.75;;;5.81;43.49
22000;BME280;11164;48.818;2.322;2023-01-29T12:25:33;102010.50;;;5.84;43.06
22000;BME280;11164;48.818;2.322;2023-01-29T12:36:27;101989.59;;;5.47;42.94
22000;BME280;11164;48.818;2.322;2023-01-29T12:38:55;101989.13;;;5.42;43.39
22000;BME280;11164;48.818;2.322;2023-01-29T12:41:49;101980.75;;;5.14;41.98
22000;BME280;11164;48.818;2.322;2023-01-29T12:44:34;101971.19;;;5.33;41.14
22000;BME280;11164;48.818;2.322;2023-01-29T12:47:08;101962.59;;;5.50;42.90
22000;BME280;11164;48.818;2.322;2023-01-29T12:49:38;101965.03;;;5.63;42.36
22000;BME280;11164;48.818;2.322;2023-01-29T12:52:10;101966.44;;;5.88;42.10
22000;BME280;11164;48.818;2.322;2023-01-29T12:54:42;101953.38;;;5.64;42.41
22000;BME280;11164;48.818;2.322;2023-01-29T12:57:22;101955.38;;;6.03;42.05
22000;BME280;11164;48.818;2.322;2023-01-29T12:59:57;101959.44;;;5.97;40.69
22000;BME280;11164;48.818;2.322;2023-01-29T13:02:39;101944.41;;;6.15;40.91
22000;BME280;11164;48.818;2.322;2023-01-29T13:05:19;101941.31;;;6.10;41.64
22000;BME280;11164;48.818;2.322;2023-01-29T13:07:50;101935.97;;;6.20;41.62
22000;BME280;11164;48.818;2.322;2023-01-29T13:10:24;101943.56;;;6.15;41.32
22000;BME280;11164;48.818;2.322;2023-01-29T13:12:57;101946.38;;;6.04;42.22
22000;BME280;11164;48.818;2.322;2023-01-29T13:15:37;101923.84;;;6.26;40.83
22000;BME280;11164;48.818;2.322;2023-01-29T13:20:55;101923.94;;;6.45;41.40
22000;BME280;11164;48.818;2.322;2023-01-29T13:23:24;101917.19;;;6.51;41.45
22000;BME280;11164;48.818;2.322;2023-01-29T13:25:53;101915.22;;;6.92;41.19
22000;BME280;11164;48.818;2.322;2023-01-29T13:28:22;101912.81;;;6.69;40.74
22000;BME280;11164;48.818;2.322;2023-01-29T13:36:25;101894.91;;;7.46;38.90
22000;BME280;11164;48.818;2.322;2023-01-29T13:39:26;101894.19;;;7.82;38.76
22000;BME280;11164;48.818;2.322;2023-01-29T13:41:53;101880.06;;;8.35;39.17
22000;BME280;11164;48.818;2.322;2023-01-29T13:46:54;101876.25;;;8.56;39.30
22000;BME280;11164;48.818;2.322;2023-01-29T13:49:44;101877.53;;;8.34;36.94
22000;BME280;11164;48.818;2.322;2023-01-29T13:52:26;101878.47;;;7.97;37.83
22000;BME280;11164;48.818;2.322;2023-01-29T13:55:00;101877.38;;;7.90;40.42
22000;BME280;11164;48.818;2.322;2023-01-29T13:57:36;101861.97;;;7.92;40.37
22000;BME280;11164;48.818;2.322;2023-01-29T14:02:45;101855.22;;;7.78;34.14
22000;BME280;11164;48.818;2.322;2023-01-29T14:13:46;101835.38;;;7.88;40.38
22000;BME280;11164;48.818;2.322;2023-01-29T14:18:56;101824.16;;;8.75;38.17
22000;BME280;11164;48.818;2.322;2023-01-29T14:21:25;101826.69;;;8.76;39.35
22000;BME280;11164;48.818;2.322;2023-01-29T14:23:57;101824.75;;;8.69;39.28
22000;BME280;11164;48.818;2.322;2023-01-29T14:29:04;101818.19;;;8.45;36.44
22000;BME280;11164;48.818;2.322;2023-01-29T14:31:53;101823.94;;;8.14;39.54
22000;BME280;11164;48.818;2.322;2023-01-29T14:34:43;101818.63;;;8.04;40.26
22000;BME280;11164;48.818;2.322;2023-01-29T14:39:54;101809.38;;;7.89;39.54
22000;BME280;11164;48.818;2.322;2023-01-29T14:42:24;101803.81;;;7.73;40.50
22000;BME280;11164;48.818;2.322;2023-01-29T14:45:05;101799.09;;;7.84;39.76
22000;BME280;11164;48.818;2.322;2023-01-29T14:49:59;101808.09;;;7.65;40.73
22000;BME280;11164;48.818;2.322;2023-01-29T14:55:02;101808.53;;;7.61;40.39
22000;BME280;11164;48.818;2.322;2023-01-29T14:57:29;101802.31;;;7.88;40.16
22000;BME280;11164;48.818;2.322;2023-01-29T14:59:58;101807.03;;;7.76;40.10
22000;BME280;11164;48.818;2.322;2023-01-29T15:02:27;101798.50;;;7.63;39.86
22000;BME280;11164;48.818;2.322;2023-01-29T15:05:01;101795.56;;;7.84;39.52
22000;BME280;11164;48.818;2.322;2023-01-29T15:07:36;101787.34;;;7.85;39.68
22000;BME280;11164;48.818;2.322;2023-01-29T15:10:13;101794.69;;;7.38;39.88
22000;BME280;11164;48.818;2.322;2023-01-29T15:15:35;101795.13;;;6.76;40.63
22000;BME280;11164;48.818;2.322;2023-01-29T15:18:11;101796.00;;;6.77;40.39
22000;BME280;11164;48.818;2.322;2023-01-29T15:20:39;101796.84;;;6.77;40.73
22000;BME280;11164;48.818;2.322;2023-01-29T15:23:27;101788.81;;;6.77;37.86
22000;BME280;11164;48.818;2.322;2023-01-29T15:25:58;101796.00;;;6.57;40.10
22000;BME280;11164;48.818;2.322;2023-01-29T15:28:27;101791.06;;;6.62;40.31
22000;BME280;11164;48.818;2.322;2023-01-29T15:30:56;101796.28;;;6.73;40.19
22000;BME280;11164;48.818;2.322;2023-01-29T15:33:23;101797.81;;;6.76;39.90
22000;BME280;11164;48.818;2.322;2023-01-29T15:36:03;101795.41;;;6.83;39.80
22000;BME280;11164;48.818;2.322;2023-01-29T15:38:29;101803.50;;;6.73;40.12
22000;BME280;11164;48.818;2.322;2023-01-29T15:40:56;101803.25;;;6.47;40.41